This is the latest recevied weather packets stored in our database for station/object IZ6EGX-13. If no packets are shown the sender has not sent any weather packets the latest 1 day(s).
| Time | Temp. | Humidity | Pressure | Rain* | Wind** | Luminosity | Snow |
|---|---|---|---|---|---|---|---|
| 1778061990 | 20.56° C | 71% | 1012.3 hPa | 0 mm | - | - | - |
| 1778061390 | 18.89° C | 76% | 1012.7 hPa | 0 mm | - | - | - |
| 1778060790 | 17.78° C | 81% | 1012.8 hPa | 0 mm | - | - | - |
| 1778059590 | 17.78° C | 77% | 1012.9 hPa | 0 mm | - | - | - |
| 1778058990 | 17.22° C | 85% | 1013 hPa | 0 mm | - | - | - |
| 1778056590 | 16.67° C | 88% | 1013.1 hPa | 0 mm | - | - | - |
| 1778055990 | 16.67° C | 86% | 1013.1 hPa | 0 mm | - | - | - |
| 1778054790 | 16.67° C | 88% | 1013 hPa | 0 mm | - | - | - |
| 1778054190 | 16.67° C | 86% | 1012.9 hPa | 0 mm | - | - | - |
| 1778053590 | 16.67° C | 88% | 1012.9 hPa | 0 mm | - | - | - |
| 1778052990 | 17.22° C | 86% | 1013.1 hPa | 0 mm | - | - | - |
| 1778052390 | 17.78° C | 83% | 1012.9 hPa | 0 mm | - | - | - |
| 1778051790 | 17.78° C | 82% | 1012.8 hPa | 0 mm | - | - | - |
| 1778051190 | 17.22° C | 84% | 1013 hPa | 0 mm | - | - | - |
| 1778050590 | 16.67° C | 85% | 1013.1 hPa | 0 mm | - | - | - |
| 1778049990 | 16.67° C | 85% | 1013.2 hPa | 0 mm | - | - | - |
| 1778049390 | 16.67° C | 86% | 1013.4 hPa | 0 mm | - | - | - |
| 1778048790 | 16.67° C | 84% | 1013.3 hPa | 0 mm | - | - | - |
| 1778048190 | 16.67° C | 83% | 1013.1 hPa | 0 mm | - | - | - |
| 1778047590 | 16.67° C | 84% | 1013.2 hPa | 0 mm | - | - | - |
| 1778046990 | 16.11° C | 85% | 1013.1 hPa | 0 mm | - | - | - |
| 1778046390 | 16.11° C | 86% | 1013.1 hPa | 0 mm | - | - | - |
| 1778045790 | 15.56° C | 88% | 1013.3 hPa | 0 mm | - | - | - |
| 1778045190 | 15.56° C | 88% | 1013.3 hPa | 0 mm | - | - | - |
| 1778044590 | 15° C | 88% | 1013.3 hPa | 0 mm | - | - | - |
* Rain latest hour (hover to see other rain measurements)
** Current wind speed in m/s (hover to see current wind gust speed)